Wetterdaten: Woche 04.08.08 - 10.08.08 (KW32)
Datum Zeit Temperatur Luftfeuchte Luftdruck Niederschlag Wind Richtung Sonnenschein Solar Taupunkt Windchill Windben
04.08.2008 00:00 18.8 C 86 % 1013.0 hPa 0.0 l/m 2.9 km/h (1 Bft) O-SO 0.00 h 0 W/m 16.4 C 18.8 C 4.3 km/h (1 Bft)
04.08.2008 01:00 18.0 C 90 % 1012.5 hPa 0.0 l/m 1.6 km/h (1 Bft) O-SO 0.00 h 0 W/m 16.3 C 18.0 C 2.5 km/h (1 Bft)
04.08.2008 02:00 17.5 C 91 % 1012.2 hPa 0.0 l/m 0.7 km/h (0 Bft) O-SO 0.00 h 0 W/m 16.0 C 17.5 C 1.6 km/h (1 Bft)
04.08.2008 03:00 16.9 C 93 % 1011.9 hPa 0.0 l/m 1.2 km/h (1 Bft) O-SO 0.00 h 0 W/m 15.9 C 16.9 C 2.4 km/h (1 Bft)
04.08.2008 04:00 16.6 C 95 % 1011.8 hPa 0.0 l/m 0.1 km/h (0 Bft) O-SO 0.00 h 0 W/m 15.8 C 16.6 C 0.4 km/h (0 Bft)
04.08.2008 05:00 16.2 C 97 % 1011.7 hPa 0.0 l/m 0.9 km/h (0 Bft) O-SO 0.00 h 0 W/m 15.7 C 16.2 C 2.0 km/h (1 Bft)
04.08.2008 06:00 16.9 C 96 % 1011.9 hPa 0.0 l/m 2.1 km/h (1 Bft) O-SO 0.00 h 17 W/m 16.3 C 16.9 C 4.6 km/h (1 Bft)
04.08.2008 07:00 20.2 C 81 % 1012.2 hPa 0.0 l/m 10.1 km/h (2 Bft) W 0.00 h 56 W/m 16.8 C 20.2 C 16.3 km/h (3 Bft)
04.08.2008 08:00 21.2 C 75 % 1012.8 hPa 0.0 l/m 13.4 km/h (3 Bft) W 0.12 h 141 W/m 16.6 C 21.2 C 21.3 km/h (4 Bft)
04.08.2008 09:00 22.4 C 68 % 1013.1 hPa 0.0 l/m 14.5 km/h (3 Bft) W 0.75 h 371 W/m 16.1 C 22.4 C 23.3 km/h (4 Bft)
04.08.2008 10:00 22.9 C 62 % 1013.4 hPa 0.0 l/m 16.6 km/h (3 Bft) W 0.95 h 425 W/m 15.1 C 22.9 C 26.4 km/h (4 Bft)
04.08.2008 11:00 22.1 C 62 % 1013.6 hPa 0.0 l/m 10.9 km/h (2 Bft) W 0.00 h 178 W/m 14.4 C 22.1 C 16.7 km/h (3 Bft)
04.08.2008 12:00 21.9 C 66 % 1013.7 hPa 0.0 l/m 9.6 km/h (2 Bft) W-NW 0.12 h 299 W/m 15.2 C 21.9 C 15.3 km/h (3 Bft)
04.08.2008 13:00 23.4 C 60 % 1013.6 hPa 0.0 l/m 11.2 km/h (2 Bft) W-NW 0.53 h 499 W/m 15.1 C 23.4 C 17.8 km/h (3 Bft)
04.08.2008 14:00 23.8 C 60 % 1013.2 hPa 0.0 l/m 15.8 km/h (3 Bft) W 0.50 h 493 W/m 15.6 C 23.8 C 24.5 km/h (4 Bft)
04.08.2008 15:00 23.6 C 62 % 1013.5 hPa 0.0 l/m 13.3 km/h (3 Bft) W 0.33 h 409 W/m 16.0 C 23.6 C 20.4 km/h (4 Bft)
04.08.2008 16:00 23.5 C 63 % 1013.8 hPa 0.0 l/m 10.9 km/h (2 Bft) W 0.00 h 243 W/m 15.9 C 23.5 C 17.5 km/h (3 Bft)
04.08.2008 17:00 21.8 C 71 % 1014.2 hPa 0.0 l/m 10.7 km/h (2 Bft) W 0.00 h 126 W/m 16.2 C 21.8 C 17.5 km/h (3 Bft)
04.08.2008 18:00 21.2 C 73 % 1014.3 hPa 0.0 l/m 11.6 km/h (2 Bft) W 0.00 h 34 W/m 16.1 C 21.2 C 18.0 km/h (3 Bft)
04.08.2008 19:00 20.8 C 72 % 1014.3 hPa 0.0 l/m 9.6 km/h (2 Bft) W 0.00 h 19 W/m 15.5 C 20.8 C 15.7 km/h (3 Bft)
04.08.2008 20:00 20.2 C 75 % 1014.2 hPa 0.0 l/m 3.4 km/h (1 Bft) W 0.00 h 10 W/m 15.5 C 20.2 C 6.1 km/h (2 Bft)
04.08.2008 21:00 20.0 C 75 % 1014.2 hPa 0.0 l/m 0.2 km/h (0 Bft) S 0.00 h 0 W/m 15.5 C 20.0 C 0.6 km/h (0 Bft)
04.08.2008 22:00 19.7 C 78 % 1014.5 hPa 0.2 l/m 1.0 km/h (0 Bft) O-SO 0.00 h 0 W/m 15.7 C 19.7 C 2.2 km/h (1 Bft)
04.08.2008 23:00 18.5 C 89 % 1014.8 hPa 0.6 l/m 2.6 km/h (1 Bft) O-SO 0.00 h 0 W/m 16.6 C 18.5 C 4.2 km/h (1 Bft)
05.08.2008 00:00 17.8 C 96 % 1015.4 hPa 2.6 l/m 5.8 km/h (2 Bft) W-NW 0.00 h 0 W/m 17.2 C 17.8 C 9.6 km/h (2 Bft)
05.08.2008 01:00 17.3 C 98 % 1015.6 hPa 0.0 l/m 3.5 km/h (1 Bft) W 0.00 h 0 W/m 17.0 C 17.3 C 6.9 km/h (2 Bft)
05.08.2008 02:00 17.1 C 97 % 1015.8 hPa 0.0 l/m 5.7 km/h (1 Bft) W 0.00 h 0 W/m 16.7 C 17.1 C 9.5 km/h (2 Bft)
05.08.2008 03:00 16.7 C 96 % 1015.8 hPa 0.0 l/m 1.5 km/h (1 Bft) W-NW 0.00 h 0 W/m 16.1 C 16.7 C 3.5 km/h (1 Bft)
05.08.2008 04:00 16.7 C 96 % 1016.0 hPa 0.0 l/m 2.0 km/h (1 Bft) W-NW 0.00 h 0 W/m 16.1 C 16.7 C 4.0 km/h (1 Bft)
05.08.2008 05:00 16.8 C 96 % 1016.3 hPa 0.2 l/m 1.3 km/h (1 Bft) W 0.00 h 0 W/m 16.1 C 16.8 C 3.2 km/h (1 Bft)
05.08.2008 06:00 16.8 C 94 % 1016.4 hPa 0.0 l/m 1.8 km/h (1 Bft) S-SO 0.00 h 9 W/m 15.9 C 16.8 C 3.4 km/h (1 Bft)
05.08.2008 07:00 17.2 C 90 % 1016.7 hPa 0.0 l/m 0.1 km/h (0 Bft) S-SO 0.00 h 26 W/m 15.6 C 17.2 C 0.6 km/h (0 Bft)
05.08.2008 08:00 17.7 C 91 % 1017.1 hPa 0.0 l/m 0.4 km/h (0 Bft) S-SO 0.00 h 89 W/m 16.1 C 17.7 C 1.6 km/h (1 Bft)
05.08.2008 09:00 18.4 C 90 % 1017.5 hPa 0.0 l/m 0.7 km/h (0 Bft) S-SO 0.05 h 164 W/m 16.7 C 18.4 C 2.7 km/h (1 Bft)
05.08.2008 10:00 19.2 C 86 % 1017.6 hPa 0.0 l/m 4.2 km/h (1 Bft) W 0.10 h 257 W/m 16.7 C 19.2 C 7.8 km/h (2 Bft)
05.08.2008 11:00 20.6 C 78 % 1017.8 hPa 0.0 l/m 6.3 km/h (2 Bft) W 0.72 h 507 W/m 16.6 C 20.6 C 10.4 km/h (2 Bft)
05.08.2008 12:00 21.7 C 69 % 1017.6 hPa 0.0 l/m 7.8 km/h (2 Bft) W 0.90 h 517 W/m 15.6 C 21.7 C 13.1 km/h (3 Bft)
05.08.2008 13:00 22.4 C 64 % 1017.6 hPa 0.0 l/m 5.8 km/h (2 Bft) W 0.28 h 439 W/m 15.3 C 22.4 C 9.3 km/h (2 Bft)
05.08.2008 14:00 23.7 C 57 % 1017.3 hPa 0.0 l/m 6.3 km/h (2 Bft) W-NW 0.83 h 625 W/m 14.8 C 23.7 C 10.5 km/h (2 Bft)
05.08.2008 15:00 25.6 C 51 % 1016.8 hPa 0.0 l/m 6.5 km/h (2 Bft) W-NW 0.97 h 727 W/m 14.6 C 25.6 C 10.8 km/h (2 Bft)
05.08.2008 16:00 26.3 C 49 % 1016.3 hPa 0.0 l/m 5.2 km/h (1 Bft) W 0.90 h 573 W/m 14.5 C 26.3 C 8.7 km/h (2 Bft)
05.08.2008 17:00 27.0 C 45 % 1015.8 hPa 0.0 l/m 5.5 km/h (1 Bft) W-NW 1.00 h 482 W/m 14.2 C 27.0 C 8.6 km/h (2 Bft)
05.08.2008 18:00 26.7 C 45 % 1015.6 hPa 0.0 l/m 3.4 km/h (1 Bft) W-NW 1.00 h 323 W/m 13.9 C 26.7 C 6.0 km/h (2 Bft)
05.08.2008 19:00 26.0 C 48 % 1015.7 hPa 0.0 l/m 3.0 km/h (1 Bft) W 1.00 h 149 W/m 14.0 C 26.0 C 5.0 km/h (1 Bft)
05.08.2008 20:00 24.0 C 55 % 1015.8 hPa 0.0 l/m 1.3 km/h (1 Bft) W 0.18 h 29 W/m 14.3 C 24.0 C 2.3 km/h (1 Bft)
05.08.2008 21:00 20.9 C 73 % 1016.0 hPa 0.0 l/m 2.4 km/h (1 Bft) SO 0.00 h 0 W/m 15.8 C 20.9 C 3.5 km/h (1 Bft)
05.08.2008 22:00 19.4 C 80 % 1016.5 hPa 0.0 l/m 0.4 km/h (0 Bft) SO 0.00 h 0 W/m 15.8 C 19.4 C 1.2 km/h (1 Bft)
05.08.2008 23:00 18.5 C 81 % 1016.5 hPa 0.0 l/m 0.0 km/h (0 Bft) SO 0.00 h 0 W/m 15.2 C 18.5 C 0.2 km/h (0 Bft)
06.08.2008 00:00 17.5 C 86 % 1016.5 hPa 0.0 l/m 0.1 km/h (0 Bft) SO 0.00 h 0 W/m 15.1 C 17.5 C 0.3 km/h (0 Bft)
06.08.2008 01:00 17.0 C 88 % 1016.5 hPa 0.0 l/m 0.2 km/h (0 Bft) SO 0.00 h 0 W/m 14.9 C 17.0 C 0.8 km/h (0 Bft)
06.08.2008 02:00 16.5 C 91 % 1016.4 hPa 0.0 l/m 0.2 km/h (0 Bft) SO 0.00 h 0 W/m 15.0 C 16.5 C 0.8 km/h (0 Bft)
06.08.2008 03:00 15.9 C 93 % 1016.3 hPa 0.0 l/m 0.3 km/h (0 Bft) SO 0.00 h 0 W/m 14.8 C 15.9 C 0.9 km/h (0 Bft)
06.08.2008 04:00 15.2 C 95 % 1016.0 hPa 0.0 l/m 0.0 km/h (0 Bft) S 0.00 h 0 W/m 14.4 C 15.2 C 0.4 km/h (0 Bft)
06.08.2008 05:00 14.9 C 95 % 1015.8 hPa 0.0 l/m 0.4 km/h (0 Bft) NW 0.00 h 0 W/m 14.1 C 14.9 C 1.3 km/h (1 Bft)
06.08.2008 06:00 14.7 C 96 % 1015.4 hPa 0.0 l/m 0.4 km/h (0 Bft) NW 0.00 h 12 W/m 14.1 C 14.7 C 1.4 km/h (1 Bft)
06.08.2008 07:00 15.2 C 95 % 1015.3 hPa 0.0 l/m 0.7 km/h (0 Bft) NW 0.35 h 78 W/m 14.5 C 15.2 C 1.7 km/h (1 Bft)
06.08.2008 08:00 18.3 C 83 % 1015.5 hPa 0.0 l/m 0.3 km/h (0 Bft) NW 1.00 h 278 W/m 15.3 C 18.3 C 1.2 km/h (1 Bft)
06.08.2008 09:00 20.6 C 73 % 1015.0 hPa 0.0 l/m 1.7 km/h (1 Bft) NW 1.00 h 438 W/m 15.6 C 20.6 C 3.9 km/h (1 Bft)
06.08.2008 10:00 22.4 C 68 % 1014.8 hPa 0.0 l/m 2.7 km/h (1 Bft) O-SO 1.00 h 588 W/m 16.1 C 22.4 C 5.2 km/h (1 Bft)
06.08.2008 11:00 24.3 C 64 % 1014.3 hPa 0.0 l/m 3.0 km/h (1 Bft) O-SO 1.00 h 702 W/m 17.0 C 24.3 C 5.6 km/h (1 Bft)
06.08.2008 12:00 25.8 C 59 % 1013.7 hPa 0.0 l/m 3.6 km/h (1 Bft) SO 1.00 h 770 W/m 17.2 C 25.8 C 6.7 km/h (2 Bft)
06.08.2008 13:00 27.1 C 55 % 1013.3 hPa 0.0 l/m 2.6 km/h (1 Bft) O-SO 0.97 h 827 W/m 17.1 C 27.1 C 5.0 km/h (1 Bft)
06.08.2008 14:00 28.3 C 51 % 1012.9 hPa 0.0 l/m 2.8 km/h (1 Bft) N-NW 1.00 h 686 W/m 17.0 C 28.3 C 5.2 km/h (1 Bft)
06.08.2008 15:00 28.9 C 49 % 1012.4 hPa 0.0 l/m 1.7 km/h (1 Bft) W-NW 0.98 h 599 W/m 17.0 C 28.9 C 3.7 km/h (1 Bft)
06.08.2008 16:00 29.4 C 48 % 1012.0 hPa 0.0 l/m 1.7 km/h (1 Bft) W-NW 0.90 h 510 W/m 17.2 C 29.4 C 3.6 km/h (1 Bft)
06.08.2008 17:00 28.9 C 46 % 1011.8 hPa 0.0 l/m 2.1 km/h (1 Bft) SO 0.53 h 362 W/m 16.2 C 28.9 C 4.4 km/h (1 Bft)
06.08.2008 18:00 29.1 C 44 % 1011.7 hPa 0.0 l/m 3.8 km/h (1 Bft) SO 1.00 h 319 W/m 15.7 C 29.1 C 6.6 km/h (2 Bft)
06.08.2008 19:00 28.2 C 48 % 1011.3 hPa 0.0 l/m 3.1 km/h (1 Bft) SO 0.88 h 143 W/m 16.2 C 28.2 C 5.3 km/h (1 Bft)
06.08.2008 20:00 26.2 C 57 % 1011.1 hPa 0.0 l/m 2.5 km/h (1 Bft) SO 0.40 h 31 W/m 17.0 C 26.2 C 4.1 km/h (1 Bft)
06.08.2008 21:00 23.2 C 70 % 1011.1 hPa 0.0 l/m 2.6 km/h (1 Bft) SO 0.00 h 0 W/m 17.5 C 23.2 C 4.0 km/h (1 Bft)
06.08.2008 22:00 21.3 C 77 % 1011.8 hPa 0.0 l/m 3.1 km/h (1 Bft) O-SO 0.00 h 0 W/m 17.2 C 21.3 C 4.8 km/h (1 Bft)
06.08.2008 23:00 20.2 C 81 % 1011.8 hPa 0.0 l/m 0.9 km/h (0 Bft) O-NO 0.00 h 0 W/m 16.8 C 20.2 C 1.6 km/h (1 Bft)
07.08.2008 00:00 19.1 C 84 % 1011.7 hPa 0.0 l/m 1.6 km/h (1 Bft) O-SO 0.00 h 0 W/m 16.3 C 19.1 C 2.8 km/h (1 Bft)
07.08.2008 01:00 18.3 C 87 % 1011.7 hPa 0.0 l/m 0.6 km/h (0 Bft) O-SO 0.00 h 0 W/m 16.1 C 18.3 C 1.5 km/h (1 Bft)
07.08.2008 02:00 17.4 C 90 % 1011.4 hPa 0.0 l/m 0.8 km/h (0 Bft) O-SO 0.00 h 0 W/m 15.8 C 17.4 C 1.8 km/h (1 Bft)
07.08.2008 03:00 16.9 C 93 % 1010.8 hPa 0.0 l/m 0.1 km/h (0 Bft) O-SO 0.00 h 0 W/m 15.7 C 16.9 C 0.6 km/h (0 Bft)
07.08.2008 04:00 16.3 C 95 % 1010.2 hPa 0.0 l/m 0.1 km/h (0 Bft) O-SO 0.00 h 0 W/m 15.5 C 16.3 C 0.6 km/h (0 Bft)
07.08.2008 05:00 15.8 C 96 % 1010.1 hPa 0.0 l/m 0.8 km/h (0 Bft) O-SO 0.00 h 0 W/m 15.2 C 15.8 C 1.5 km/h (1 Bft)
07.08.2008 06:00 15.7 C 97 % 1010.2 hPa 0.0 l/m 0.6 km/h (0 Bft) O-SO 0.00 h 12 W/m 15.1 C 15.7 C 1.4 km/h (1 Bft)
07.08.2008 07:00 16.3 C 96 % 1010.2 hPa 0.0 l/m 2.2 km/h (1 Bft) O-SO 0.00 h 30 W/m 15.7 C 16.3 C 3.8 km/h (1 Bft)
07.08.2008 08:00 18.9 C 88 % 1009.7 hPa 0.0 l/m 0.6 km/h (0 Bft) O-SO 0.00 h 108 W/m 16.8 C 18.9 C 1.9 km/h (1 Bft)
07.08.2008 09:00 21.2 C 77 % 1009.7 hPa 0.0 l/m 1.8 km/h (1 Bft) SO 0.52 h 304 W/m 17.0 C 21.2 C 4.0 km/h (1 Bft)
07.08.2008 10:00 22.9 C 70 % 1009.9 hPa 0.0 l/m 2.7 km/h (1 Bft) S-SO 0.70 h 481 W/m 17.0 C 22.9 C 6.1 km/h (2 Bft)
07.08.2008 11:00 25.4 C 61 % 1009.3 hPa 0.0 l/m 3.1 km/h (1 Bft) S 0.95 h 667 W/m 17.2 C 25.4 C 7.0 km/h (2 Bft)
07.08.2008 12:00 26.8 C 55 % 1008.9 hPa 0.0 l/m 3.0 km/h (1 Bft) S 0.60 h 583 W/m 17.0 C 26.8 C 6.2 km/h (2 Bft)
07.08.2008 13:00 28.1 C 51 % 1008.4 hPa 0.0 l/m 3.2 km/h (1 Bft) S-SO 0.85 h 664 W/m 17.0 C 28.1 C 6.6 km/h (2 Bft)
07.08.2008 14:00 28.6 C 50 % 1007.9 hPa 0.0 l/m 3.0 km/h (1 Bft) N-NW 0.27 h 426 W/m 17.2 C 28.6 C 5.5 km/h (1 Bft)
07.08.2008 15:00 28.4 C 49 % 1007.7 hPa 0.0 l/m 8.0 km/h (2 Bft) W-NW 0.13 h 345 W/m 16.5 C 28.4 C 12.9 km/h (3 Bft)
07.08.2008 16:00 27.1 C 54 % 1008.2 hPa 0.0 l/m 11.1 km/h (2 Bft) W-NW 0.10 h 232 W/m 17.0 C 27.1 C 17.8 km/h (3 Bft)
07.08.2008 17:00 26.1 C 57 % 1008.3 hPa 0.0 l/m 12.9 km/h (3 Bft) W 0.23 h 179 W/m 16.8 C 26.1 C 19.7 km/h (3 Bft)
07.08.2008 18:00 24.0 C 56 % 1008.6 hPa 0.0 l/m 4.8 km/h (1 Bft) W 0.13 h 123 W/m 14.7 C 24.0 C 8.8 km/h (2 Bft)
07.08.2008 19:00 23.1 C 58 % 1008.9 hPa 0.0 l/m 2.3 km/h (1 Bft) S-SO 0.00 h 39 W/m 14.4 C 23.1 C 5.0 km/h (1 Bft)
07.08.2008 20:00 21.0 C 73 % 1009.9 hPa 0.6 l/m 3.7 km/h (1 Bft) S-SO 0.00 h 10 W/m 16.1 C 21.0 C 6.0 km/h (2 Bft)
07.08.2008 21:00 19.5 C 83 % 1009.8 hPa 0.0 l/m 2.9 km/h (1 Bft) SO 0.00 h 0 W/m 16.4 C 19.5 C 4.7 km/h (1 Bft)
07.08.2008 22:00 19.1 C 86 % 1010.4 hPa 0.0 l/m 1.3 km/h (1 Bft) S-SO 0.00 h 0 W/m 16.6 C 19.1 C 2.7 km/h (1 Bft)
07.08.2008 23:00 19.0 C 88 % 1009.8 hPa 0.0 l/m 0.6 km/h (0 Bft) W-SW 0.00 h 0 W/m 16.9 C 19.0 C 1.8 km/h (1 Bft)
08.08.2008 00:00 18.9 C 84 % 1010.0 hPa 0.0 l/m 1.4 km/h (1 Bft) S-SO 0.00 h 0 W/m 16.1 C 18.9 C 3.1 km/h (1 Bft)
08.08.2008 01:00 18.8 C 80 % 1009.2 hPa 0.0 l/m 4.0 km/h (1 Bft) S-SO 0.00 h 0 W/m 15.2 C 18.8 C 8.0 km/h (2 Bft)
08.08.2008 02:00 18.1 C 81 % 1009.2 hPa 0.0 l/m 2.0 km/h (1 Bft) S 0.00 h 0 W/m 14.8 C 18.1 C 4.9 km/h (1 Bft)
08.08.2008 03:00 17.9 C 82 % 1009.2 hPa 0.2 l/m 0.6 km/h (0 Bft) S-SO 0.00 h 0 W/m 14.8 C 17.9 C 1.9 km/h (1 Bft)
08.08.2008 04:00 17.0 C 93 % 1009.2 hPa 0.8 l/m 1.7 km/h (1 Bft) W-NW 0.00 h 0 W/m 15.8 C 17.0 C 3.7 km/h (1 Bft)
08.08.2008 05:00 16.5 C 94 % 1009.6 hPa 0.0 l/m 7.7 km/h (2 Bft) W 0.00 h 0 W/m 15.5 C 16.5 C 13.2 km/h (3 Bft)
08.08.2008 06:00 16.1 C 87 % 1010.0 hPa 0.0 l/m 6.8 km/h (2 Bft) W 0.00 h 16 W/m 14.0 C 16.1 C 11.1 km/h (2 Bft)
08.08.2008 07:00 16.1 C 84 % 1010.7 hPa 0.0 l/m 5.1 km/h (1 Bft) W 0.32 h 84 W/m 13.4 C 16.1 C 9.0 km/h (2 Bft)
08.08.2008 08:00 17.7 C 75 % 1010.7 hPa 0.0 l/m 8.5 km/h (2 Bft) W 0.68 h 248 W/m 13.1 C 17.7 C 13.4 km/h (3 Bft)
08.08.2008 09:00 19.1 C 66 % 1010.6 hPa 0.0 l/m 10.9 km/h (2 Bft) W 0.95 h 463 W/m 12.7 C 19.1 C 18.2 km/h (3 Bft)
08.08.2008 10:00 20.3 C 60 % 1010.5 hPa 0.2 l/m 10.6 km/h (2 Bft) W 0.67 h 484 W/m 12.4 C 20.3 C 17.6 km/h (3 Bft)
08.08.2008 11:00 20.5 C 59 % 1010.6 hPa 0.0 l/m 12.2 km/h (2 Bft) W 0.02 h 300 W/m 12.2 C 20.5 C 19.5 km/h (3 Bft)
08.08.2008 12:00 20.3 C 61 % 1011.1 hPa 0.0 l/m 13.8 km/h (3 Bft) W 0.12 h 429 W/m 12.4 C 20.3 C 21.5 km/h (4 Bft)
08.08.2008 13:00 20.7 C 58 % 1011.1 hPa 0.0 l/m 15.2 km/h (3 Bft) W 0.02 h 380 W/m 12.0 C 20.7 C 23.4 km/h (4 Bft)
08.08.2008 14:00 19.4 C 65 % 1011.8 hPa 0.0 l/m 15.3 km/h (3 Bft) W-NW 0.00 h 247 W/m 12.7 C 19.4 C 24.3 km/h (4 Bft)
08.08.2008 15:00 18.4 C 73 % 1012.3 hPa 0.0 l/m 12.1 km/h (2 Bft) W 0.03 h 196 W/m 13.4 C 18.4 C 19.1 km/h (3 Bft)
08.08.2008 16:00 18.4 C 80 % 1012.8 hPa 0.4 l/m 6.8 km/h (2 Bft) W 0.15 h 254 W/m 14.8 C 18.4 C 10.8 km/h (2 Bft)
08.08.2008 17:00 15.5 C 86 % 1013.8 hPa 1.2 l/m 13.0 km/h (3 Bft) W-NW 0.07 h 102 W/m 13.2 C 15.5 C 20.4 km/h (4 Bft)
08.08.2008 18:00 15.4 C 91 % 1013.7 hPa 0.0 l/m 10.3 km/h (2 Bft) W-NW 0.02 h 129 W/m 13.9 C 15.4 C 15.8 km/h (3 Bft)
08.08.2008 19:00 15.7 C 86 % 1013.6 hPa 0.0 l/m 12.3 km/h (3 Bft) W 0.00 h 69 W/m 13.4 C 15.7 C 18.9 km/h (3 Bft)
08.08.2008 20:00 15.8 C 83 % 1013.7 hPa 0.0 l/m 10.5 km/h (2 Bft) W-NW 0.37 h 42 W/m 13.0 C 15.8 C 16.7 km/h (3 Bft)
08.08.2008 21:00 15.3 C 85 % 1014.5 hPa 0.0 l/m 4.1 km/h (1 Bft) W 0.00 h 0 W/m 12.9 C 15.3 C 7.6 km/h (2 Bft)
08.08.2008 22:00 14.9 C 86 % 1015.1 hPa 0.0 l/m 1.0 km/h (0 Bft) O 0.00 h 0 W/m 12.6 C 14.9 C 2.4 km/h (1 Bft)
08.08.2008 23:00 14.9 C 86 % 1015.6 hPa 0.0 l/m 0.1 km/h (0 Bft) S-SO 0.00 h 0 W/m 12.6 C 14.9 C 0.7 km/h (0 Bft)
09.08.2008 00:00 14.8 C 86 % 1015.9 hPa 0.0 l/m 1.0 km/h (0 Bft) S-SO 0.00 h 0 W/m 12.5 C 14.8 C 2.2 km/h (1 Bft)
09.08.2008 01:00 14.8 C 87 % 1015.9 hPa 0.0 l/m 0.4 km/h (0 Bft) S 0.00 h 0 W/m 12.7 C 14.8 C 1.3 km/h (1 Bft)
09.08.2008 02:00 14.9 C 88 % 1015.9 hPa 0.0 l/m 2.2 km/h (1 Bft) O-SO 0.00 h 0 W/m 13.0 C 14.9 C 3.9 km/h (1 Bft)
09.08.2008 03:00 15.3 C 86 % 1015.8 hPa 0.0 l/m 0.4 km/h (0 Bft) SO 0.00 h 0 W/m 13.0 C 15.3 C 1.0 km/h (0 Bft)
09.08.2008 04:00 15.2 C 87 % 1015.9 hPa 0.0 l/m 0.3 km/h (0 Bft) W 0.00 h 0 W/m 13.1 C 15.2 C 1.2 km/h (1 Bft)
09.08.2008 05:00 15.3 C 87 % 1016.1 hPa 0.0 l/m 0.6 km/h (0 Bft) W 0.00 h 0 W/m 13.1 C 15.3 C 1.8 km/h (1 Bft)
09.08.2008 06:00 15.4 C 87 % 1016.5 hPa 0.0 l/m 0.6 km/h (0 Bft) S 0.00 h 13 W/m 13.1 C 15.4 C 1.8 km/h (1 Bft)
09.08.2008 07:00 15.5 C 88 % 1016.9 hPa 0.0 l/m 0.7 km/h (0 Bft) S 0.00 h 49 W/m 13.5 C 15.5 C 2.5 km/h (1 Bft)
09.08.2008 08:00 15.6 C 91 % 1017.1 hPa 0.0 l/m 0.8 km/h (0 Bft) S 0.00 h 71 W/m 14.1 C 15.6 C 2.3 km/h (1 Bft)
09.08.2008 09:00 16.5 C 88 % 1017.1 hPa 0.0 l/m 1.8 km/h (1 Bft) W-NW 0.00 h 164 W/m 14.4 C 16.5 C 3.7 km/h (1 Bft)
09.08.2008 10:00 17.7 C 79 % 1017.2 hPa 0.0 l/m 5.0 km/h (1 Bft) W 0.38 h 330 W/m 14.0 C 17.7 C 8.0 km/h (2 Bft)
09.08.2008 11:00 18.9 C 72 % 1017.0 hPa 0.0 l/m 7.2 km/h (2 Bft) W 0.40 h 388 W/m 13.7 C 18.9 C 11.8 km/h (2 Bft)
09.08.2008 12:00 20.4 C 66 % 1016.8 hPa 0.0 l/m 5.1 km/h (1 Bft) W 0.50 h 492 W/m 13.8 C 20.4 C 8.4 km/h (2 Bft)
09.08.2008 13:00 22.1 C 57 % 1016.4 hPa 0.0 l/m 8.3 km/h (2 Bft) W 1.00 h 913 W/m 13.1 C 22.1 C 13.5 km/h (3 Bft)
09.08.2008 14:00 23.1 C 53 % 1016.1 hPa 0.0 l/m 8.1 km/h (2 Bft) W 0.92 h 747 W/m 13.0 C 23.1 C 13.3 km/h (3 Bft)
09.08.2008 15:00 24.6 C 48 % 1015.4 hPa 0.0 l/m 7.0 km/h (2 Bft) W-SW 1.00 h 779 W/m 12.8 C 24.6 C 12.1 km/h (2 Bft)
09.08.2008 16:00 24.9 C 44 % 1015.1 hPa 0.0 l/m 6.7 km/h (2 Bft) W 1.00 h 633 W/m 11.7 C 24.9 C 11.2 km/h (2 Bft)
09.08.2008 17:00 24.7 C 44 % 1014.9 hPa 0.0 l/m 7.4 km/h (2 Bft) W-NW 1.00 h 485 W/m 11.6 C 24.7 C 12.2 km/h (2 Bft)
09.08.2008 18:00 24.1 C 45 % 1014.5 hPa 0.0 l/m 7.8 km/h (2 Bft) W 1.00 h 304 W/m 11.3 C 24.1 C 12.5 km/h (3 Bft)
09.08.2008 19:00 23.3 C 47 % 1014.4 hPa 0.0 l/m 4.6 km/h (1 Bft) W-NW 0.55 h 126 W/m 11.4 C 23.3 C 7.6 km/h (2 Bft)
09.08.2008 20:00 21.0 C 54 % 1014.5 hPa 0.0 l/m 3.7 km/h (1 Bft) W 0.02 h 18 W/m 11.3 C 21.0 C 6.3 km/h (2 Bft)
09.08.2008 21:00 18.6 C 64 % 1015.1 hPa 0.0 l/m 2.6 km/h (1 Bft) O-SO 0.00 h 0 W/m 11.7 C 18.6 C 4.1 km/h (1 Bft)
09.08.2008 22:00 17.3 C 71 % 1015.2 hPa 0.0 l/m 1.1 km/h (1 Bft) O 0.00 h 0 W/m 11.9 C 17.3 C 2.7 km/h (1 Bft)
09.08.2008 23:00 16.2 C 75 % 1015.2 hPa 0.0 l/m 1.0 km/h (0 Bft) O 0.00 h 0 W/m 11.8 C 16.2 C 1.8 km/h (1 Bft)
10.08.2008 00:00 14.9 C 82 % 1015.2 hPa 0.0 l/m 0.9 km/h (0 Bft) O 0.00 h 0 W/m 11.9 C 14.9 C 1.8 km/h (1 Bft)
10.08.2008 01:00 14.1 C 85 % 1015.1 hPa 0.0 l/m 1.3 km/h (1 Bft) O 0.00 h 0 W/m 11.7 C 14.1 C 2.3 km/h (1 Bft)
10.08.2008 02:00 13.3 C 88 % 1014.7 hPa 0.0 l/m 1.0 km/h (0 Bft) O 0.00 h 0 W/m 11.4 C 13.3 C 1.8 km/h (1 Bft)
10.08.2008 03:00 12.5 C 91 % 1014.5 hPa 0.0 l/m 1.2 km/h (1 Bft) O 0.00 h 0 W/m 11.1 C 12.5 C 2.2 km/h (1 Bft)
10.08.2008 04:00 12.0 C 94 % 1014.0 hPa 0.0 l/m 0.3 km/h (0 Bft) O-SO 0.00 h 0 W/m 11.0 C 12.0 C 0.9 km/h (0 Bft)
10.08.2008 05:00 11.5 C 94 % 1014.1 hPa 0.0 l/m 0.1 km/h (0 Bft) O-SO 0.00 h 0 W/m 10.6 C 11.5 C 0.4 km/h (0 Bft)
10.08.2008 06:00 11.2 C 96 % 1014.3 hPa 0.0 l/m 1.0 km/h (0 Bft) O-SO 0.00 h 11 W/m 10.6 C 11.2 C 1.8 km/h (1 Bft)
10.08.2008 07:00 11.7 C 97 % 1014.2 hPa 0.0 l/m 0.1 km/h (0 Bft) O-SO 0.23 h 65 W/m 11.2 C 11.7 C 0.5 km/h (0 Bft)
10.08.2008 08:00 14.1 C 87 % 1014.0 hPa 0.0 l/m 0.7 km/h (0 Bft) O-SO 1.00 h 273 W/m 12.0 C 14.1 C 1.8 km/h (1 Bft)
10.08.2008 09:00 16.9 C 80 % 1013.6 hPa 0.0 l/m 2.1 km/h (1 Bft) O-SO 1.00 h 428 W/m 13.4 C 16.9 C 4.2 km/h (1 Bft)
10.08.2008 10:00 20.1 C 69 % 1012.9 hPa 0.0 l/m 2.1 km/h (1 Bft) S-SO 1.00 h 570 W/m 14.3 C 20.1 C 4.8 km/h (1 Bft)
10.08.2008 11:00 22.1 C 62 % 1012.4 hPa 0.0 l/m 1.9 km/h (1 Bft) O 1.00 h 695 W/m 14.4 C 22.1 C 4.3 km/h (1 Bft)
10.08.2008 12:00 23.5 C 57 % 1012.0 hPa 0.0 l/m 3.1 km/h (1 Bft) O-SO 1.00 h 765 W/m 14.4 C 23.5 C 5.8 km/h (2 Bft)
10.08.2008 13:00 24.6 C 52 % 1011.5 hPa 0.0 l/m 2.2 km/h (1 Bft) W 0.88 h 734 W/m 14.1 C 24.6 C 5.0 km/h (1 Bft)
10.08.2008 14:00 25.6 C 50 % 1010.8 hPa 0.0 l/m 2.8 km/h (1 Bft) W 0.92 h 730 W/m 14.2 C 25.6 C 5.6 km/h (1 Bft)
10.08.2008 15:00 26.8 C 43 % 1010.2 hPa 0.0 l/m 7.9 km/h (2 Bft) W-NW 0.73 h 569 W/m 13.1 C 26.8 C 12.6 km/h (3 Bft)
10.08.2008 16:00 27.7 C 39 % 1009.8 hPa 0.0 l/m 7.5 km/h (2 Bft) W-NW 1.00 h 626 W/m 12.4 C 27.7 C 12.2 km/h (2 Bft)
10.08.2008 17:00 26.9 C 43 % 1009.7 hPa 0.0 l/m 6.4 km/h (2 Bft) W 0.53 h 389 W/m 13.1 C 26.9 C 10.5 km/h (2 Bft)
10.08.2008 18:00 27.1 C 43 % 1009.5 hPa 0.0 l/m 6.0 km/h (2 Bft) W 0.80 h 279 W/m 13.3 C 27.1 C 9.0 km/h (2 Bft)
10.08.2008 19:00 25.3 C 49 % 1009.6 hPa 0.0 l/m 4.7 km/h (1 Bft) W 0.22 h 90 W/m 13.6 C 25.3 C 7.6 km/h (2 Bft)
10.08.2008 20:00 23.6 C 55 % 1009.8 hPa 0.0 l/m 3.3 km/h (1 Bft) W 0.30 h 28 W/m 14.0 C 23.6 C 6.0 km/h (2 Bft)
10.08.2008 21:00 21.9 C 60 % 1010.0 hPa 0.0 l/m 0.5 km/h (0 Bft) W 0.00 h 0 W/m 13.9 C 21.9 C 1.4 km/h (1 Bft)
10.08.2008 22:00 19.7 C 72 % 1010.1 hPa 0.0 l/m 1.0 km/h (0 Bft) O 0.00 h 0 W/m 14.4 C 19.7 C 1.9 km/h (1 Bft)
10.08.2008 23:00 18.1 C 78 % 1010.1 hPa 0.0 l/m 1.4 km/h (1 Bft) O 0.00 h 0 W/m 14.2 C 18.1 C 2.7 km/h (1 Bft)
Min-Datum _ 10.08.08 10.08.08 07.08.08 - 04.08.08 - - - 10.08.08 10.08.08 04.08.08
_ Min-Zeit 05:55 16:13 14:45 - 00:01 - - - 05:28 05:55 00:35
Minimum _ 10.9 C 35 % 1007.6 hPa - 0.0 km/h (0 Bft) - - - 10.1 C 10.9 C 0.0 km/h (0 Bft)
Max-Datum _ 06.08.08 05.08.08 05.08.08 05.08.08 04.08.08 - 04.08.08 08.08.08 06.08.08 06.08.08 04.08.08
_ Max-Zeit 16:46 00:53 11:15 00:01 08:53 - 08:48 12:34 12:36 16:46 10:42
Maximum _ 30.1 C 98 % 1017.9 hPa 2.6 l/m 29.5 km/h
W (5 Bft)
- 0.02 h 1222 W/m 19.8 C 30.1 C 43.5 km/h
W (6 Bft)
Durchschnitt _ 20.0 C 74 % 1013.3 hPa #7.0 l/m 4.2 km/h (1 Bft) W #49:31 h 324 W/m 14.7 C 20.0 C 7.1 km/h (2 Bft)
© Kaiko 2008